sensor_id;sensor_type;location;lat;lon;timestamp;temperature;humidity
54788;DHT22;59598;48.112;16.280;2022-09-06T00:01:15;16.70;99.90
54788;DHT22;59598;48.112;16.280;2022-09-06T00:03:49;16.60;99.90
54788;DHT22;59598;48.112;16.280;2022-09-06T00:06:22;16.50;99.90
54788;DHT22;59598;48.112;16.280;2022-09-06T00:09:01;16.50;99.90
54788;DHT22;59598;48.112;16.280;2022-09-06T00:11:32;16.50;99.90
54788;DHT22;59598;48.112;16.280;2022-09-06T00:14:11;16.50;99.90
54788;DHT22;59598;48.112;16.280;2022-09-06T00:16:46;16.50;99.90
54788;DHT22;59598;48.112;16.280;2022-09-06T00:19:20;16.50;99.90
54788;DHT22;59598;48.112;16.280;2022-09-06T00:21:58;16.40;99.90
54788;DHT22;59598;48.112;16.280;2022-09-06T00:24:29;16.40;99.90
54788;DHT22;59598;48.112;16.280;2022-09-06T00:27:04;16.30;99.90
54788;DHT22;59598;48.112;16.280;2022-09-06T00:29:38;16.20;99.90
54788;DHT22;59598;48.112;16.280;2022-09-06T00:32:14;16.10;99.90
54788;DHT22;59598;48.112;16.280;2022-09-06T00:34:46;16.10;99.90
54788;DHT22;59598;48.112;16.280;2022-09-06T00:37:18;16.00;99.90
54788;DHT22;59598;48.112;16.280;2022-09-06T00:39:51;16.00;99.90
54788;DHT22;59598;48.112;16.280;2022-09-06T00:42:23;16.00;99.90
54788;DHT22;59598;48.112;16.280;2022-09-06T00:44:57;16.10;99.90
54788;DHT22;59598;48.112;16.280;2022-09-06T00:47:33;16.10;99.90
54788;DHT22;59598;48.112;16.280;2022-09-06T00:50:10;16.00;99.90
54788;DHT22;59598;48.112;16.280;2022-09-06T00:52:46;16.00;99.90
54788;DHT22;59598;48.112;16.280;2022-09-06T00:55:20;16.00;99.90
54788;DHT22;59598;48.112;16.280;2022-09-06T00:57:54;16.00;99.90
54788;DHT22;59598;48.112;16.280;2022-09-06T01:00:29;15.90;99.90
54788;DHT22;59598;48.112;16.280;2022-09-06T01:03:06;15.90;99.90
54788;DHT22;59598;48.112;16.280;2022-09-06T01:14:50;15.80;99.90
54788;DHT22;59598;48.112;16.280;2022-09-06T01:18:17;15.80;99.90
54788;DHT22;59598;48.112;16.280;2022-09-06T01:21:14;15.70;99.90
54788;DHT22;59598;48.112;16.280;2022-09-06T01:24:16;15.70;99.90
54788;DHT22;59598;48.112;16.280;2022-09-06T01:35:40;15.50;99.90
54788;DHT22;59598;48.112;16.280;2022-09-06T01:38:19;15.50;99.90
54788;DHT22;59598;48.112;16.280;2022-09-06T01:40:53;15.50;99.90
54788;DHT22;59598;48.112;16.280;2022-09-06T01:43:30;15.50;99.90
54788;DHT22;59598;48.112;16.280;2022-09-06T01:52:25;15.60;99.90
54788;DHT22;59598;48.112;16.280;2022-09-06T02:01:16;15.50;99.90
54788;DHT22;59598;48.112;16.280;2022-09-06T02:04:29;15.40;99.90
54788;DHT22;59598;48.112;16.280;2022-09-06T02:07:25;15.30;99.90
54788;DHT22;59598;48.112;16.280;2022-09-06T02:10:16;15.20;99.90
54788;DHT22;59598;48.112;16.280;2022-09-06T02:12:55;15.20;99.90
54788;DHT22;59598;48.112;16.280;2022-09-06T02:15:38;15.20;99.90
54788;DHT22;59598;48.112;16.280;2022-09-06T02:21:35;15.20;99.90
54788;DHT22;59598;48.112;16.280;2022-09-06T02:24:22;15.20;99.90
54788;DHT22;59598;48.112;16.280;2022-09-06T02:27:02;15.10;99.90
54788;DHT22;59598;48.112;16.280;2022-09-06T02:29:36;15.10;99.90
54788;DHT22;59598;48.112;16.280;2022-09-06T02:32:26;15.10;99.90
54788;DHT22;59598;48.112;16.280;2022-09-06T02:35:06;15.10;99.90
54788;DHT22;59598;48.112;16.280;2022-09-06T02:37:42;15.00;99.90
54788;DHT22;59598;48.112;16.280;2022-09-06T02:40:15;15.00;99.90
54788;DHT22;59598;48.112;16.280;2022-09-06T02:42:52;15.10;99.90
54788;DHT22;59598;48.112;16.280;2022-09-06T02:45:27;15.10;99.90
54788;DHT22;59598;48.112;16.280;2022-09-06T02:48:02;15.00;99.90
54788;DHT22;59598;48.112;16.280;2022-09-06T02:50:42;15.00;99.90
54788;DHT22;59598;48.112;16.280;2022-09-06T02:53:17;15.00;99.90
54788;DHT22;59598;48.112;16.280;2022-09-06T02:55:53;14.90;99.90
54788;DHT22;59598;48.112;16.280;2022-09-06T02:58:29;14.90;99.90
54788;DHT22;59598;48.112;16.280;2022-09-06T03:01:01;14.90;99.90
54788;DHT22;59598;48.112;16.280;2022-09-06T03:03:32;14.90;99.90
54788;DHT22;59598;48.112;16.280;2022-09-06T03:06:06;14.80;99.90
54788;DHT22;59598;48.112;16.280;2022-09-06T03:08:43;14.80;99.90
54788;DHT22;59598;48.112;16.280;2022-09-06T03:11:17;14.70;99.90
54788;DHT22;59598;48.112;16.280;2022-09-06T03:13:55;14.70;99.90
54788;DHT22;59598;48.112;16.280;2022-09-06T03:16:26;14.70;99.90
54788;DHT22;59598;48.112;16.280;2022-09-06T03:18:57;14.70;99.90
54788;DHT22;59598;48.112;16.280;2022-09-06T03:21:34;14.70;99.90
54788;DHT22;59598;48.112;16.280;2022-09-06T03:24:08;14.70;99.90
54788;DHT22;59598;48.112;16.280;2022-09-06T03:26:44;14.70;99.90
54788;DHT22;59598;48.112;16.280;2022-09-06T03:29:23;14.70;99.90
54788;DHT22;59598;48.112;16.280;2022-09-06T03:31:58;14.70;99.90
54788;DHT22;59598;48.112;16.280;2022-09-06T03:34:32;14.60;99.90
54788;DHT22;59598;48.112;16.280;2022-09-06T03:37:03;14.70;99.90
54788;DHT22;59598;48.112;16.280;2022-09-06T03:39:38;14.70;99.90
54788;DHT22;59598;48.112;16.280;2022-09-06T03:42:10;14.60;99.90
54788;DHT22;59598;48.112;16.280;2022-09-06T03:44:44;14.60;99.90
54788;DHT22;59598;48.112;16.280;2022-09-06T03:47:18;14.60;99.90
54788;DHT22;59598;48.112;16.280;2022-09-06T03:49:52;14.50;99.90
54788;DHT22;59598;48.112;16.280;2022-09-06T03:52:26;14.50;99.90
54788;DHT22;59598;48.112;16.280;2022-09-06T03:55:01;14.50;99.90
54788;DHT22;59598;48.112;16.280;2022-09-06T03:57:35;14.50;99.90
54788;DHT22;59598;48.112;16.280;2022-09-06T04:00:11;14.50;99.90
54788;DHT22;59598;48.112;16.280;2022-09-06T04:02:43;14.50;99.90
54788;DHT22;59598;48.112;16.280;2022-09-06T04:05:21;14.50;99.90
54788;DHT22;59598;48.112;16.280;2022-09-06T04:07:58;14.50;99.90
54788;DHT22;59598;48.112;16.280;2022-09-06T04:10:29;14.50;99.90
54788;DHT22;59598;48.112;16.280;2022-09-06T04:13:01;14.50;99.90
54788;DHT22;59598;48.112;16.280;2022-09-06T04:15:32;14.50;99.90
54788;DHT22;59598;48.112;16.280;2022-09-06T04:18:03;14.50;99.90
54788;DHT22;59598;48.112;16.280;2022-09-06T04:20:38;14.50;99.90
54788;DHT22;59598;48.112;16.280;2022-09-06T04:23:15;14.40;99.90
54788;DHT22;59598;48.112;16.280;2022-09-06T04:25:57;14.40;99.90
54788;DHT22;59598;48.112;16.280;2022-09-06T04:28:29;14.30;99.90
54788;DHT22;59598;48.112;16.280;2022-09-06T04:31:02;14.40;99.90
54788;DHT22;59598;48.112;16.280;2022-09-06T04:33:37;14.40;99.90
54788;DHT22;59598;48.112;16.280;2022-09-06T04:36:10;14.50;99.90
54788;DHT22;59598;48.112;16.280;2022-09-06T04:38:43;14.50;99.90
54788;DHT22;59598;48.112;16.280;2022-09-06T04:41:16;14.50;99.90
54788;DHT22;59598;48.112;16.280;2022-09-06T04:43:57;14.50;99.90
54788;DHT22;59598;48.112;16.280;2022-09-06T04:46:29;14.60;99.90
54788;DHT22;59598;48.112;16.280;2022-09-06T04:49:09;14.70;99.90
54788;DHT22;59598;48.112;16.280;2022-09-06T04:51:40;14.80;99.90
54788;DHT22;59598;48.112;16.280;2022-09-06T04:54:17;14.80;99.90
54788;DHT22;59598;48.112;16.280;2022-09-06T04:56:53;15.00;99.90
54788;DHT22;59598;48.112;16.280;2022-09-06T04:59:30;15.10;99.90
54788;DHT22;59598;48.112;16.280;2022-09-06T05:02:04;15.20;99.90
54788;DHT22;59598;48.112;16.280;2022-09-06T05:04:37;15.20;99.90
54788;DHT22;59598;48.112;16.280;2022-09-06T05:07:09;15.30;99.90
54788;DHT22;59598;48.112;16.280;2022-09-06T05:09:41;15.40;99.90
54788;DHT22;59598;48.112;16.280;2022-09-06T05:12:15;15.50;99.90
54788;DHT22;59598;48.112;16.280;2022-09-06T05:14:46;15.60;99.90
54788;DHT22;59598;48.112;16.280;2022-09-06T05:17:18;15.60;99.90
54788;DHT22;59598;48.112;16.280;2022-09-06T05:19:53;15.70;99.90
54788;DHT22;59598;48.112;16.280;2022-09-06T05:22:30;15.80;99.90
54788;DHT22;59598;48.112;16.280;2022-09-06T05:25:09;15.90;99.90
54788;DHT22;59598;48.112;16.280;2022-09-06T05:27:46;16.10;99.90
54788;DHT22;59598;48.112;16.280;2022-09-06T05:30:17;16.10;99.90
54788;DHT22;59598;48.112;16.280;2022-09-06T05:32:50;16.20;99.90
54788;DHT22;59598;48.112;16.280;2022-09-06T05:35:22;16.30;99.90
54788;DHT22;59598;48.112;16.280;2022-09-06T05:38:01;16.40;99.90
54788;DHT22;59598;48.112;16.280;2022-09-06T05:40:32;16.50;99.90
54788;DHT22;59598;48.112;16.280;2022-09-06T05:43:07;16.60;99.90
54788;DHT22;59598;48.112;16.280;2022-09-06T05:45:40;16.70;99.90
54788;DHT22;59598;48.112;16.280;2022-09-06T05:48:14;16.90;99.90
54788;DHT22;59598;48.112;16.280;2022-09-06T05:51:08;16.90;99.90
54788;DHT22;59598;48.112;16.280;2022-09-06T05:53:44;17.00;99.90
54788;DHT22;59598;48.112;16.280;2022-09-06T05:56:16;17.20;99.90
54788;DHT22;59598;48.112;16.280;2022-09-06T05:58:52;17.40;99.90
54788;DHT22;59598;48.112;16.280;2022-09-06T06:01:29;17.60;99.90
54788;DHT22;59598;48.112;16.280;2022-09-06T06:04:06;17.90;99.90
54788;DHT22;59598;48.112;16.280;2022-09-06T06:06:41;18.30;99.90
54788;DHT22;59598;48.112;16.280;2022-09-06T06:09:24;18.60;99.90
54788;DHT22;59598;48.112;16.280;2022-09-06T06:11:56;19.00;99.90
54788;DHT22;59598;48.112;16.280;2022-09-06T06:14:30;19.60;99.90
54788;DHT22;59598;48.112;16.280;2022-09-06T06:17:05;19.90;99.90
54788;DHT22;59598;48.112;16.280;2022-09-06T06:19:39;20.10;99.90
54788;DHT22;59598;48.112;16.280;2022-09-06T06:22:18;20.20;99.90
54788;DHT22;59598;48.112;16.280;2022-09-06T06:24:54;20.30;99.90
54788;DHT22;59598;48.112;16.280;2022-09-06T06:27:28;20.40;99.90
54788;DHT22;59598;48.112;16.280;2022-09-06T06:30:04;20.60;99.90
54788;DHT22;59598;48.112;16.280;2022-09-06T06:32:39;20.80;99.90
54788;DHT22;59598;48.112;16.280;2022-09-06T06:35:12;20.80;99.90
54788;DHT22;59598;48.112;16.280;2022-09-06T06:37:51;21.20;99.90
54788;DHT22;59598;48.112;16.280;2022-09-06T06:40:28;21.30;99.90
54788;DHT22;59598;48.112;16.280;2022-09-06T06:43:05;21.60;99.90
54788;DHT22;59598;48.112;16.280;2022-09-06T06:45:41;21.70;99.90
54788;DHT22;59598;48.112;16.280;2022-09-06T06:48:20;21.70;99.90
54788;DHT22;59598;48.112;16.280;2022-09-06T06:50:54;21.90;99.90
54788;DHT22;59598;48.112;16.280;2022-09-06T06:53:33;22.20;99.90
54788;DHT22;59598;48.112;16.280;2022-09-06T06:58:54;21.80;99.90
54788;DHT22;59598;48.112;16.280;2022-09-06T07:01:31;22.10;99.90
54788;DHT22;59598;48.112;16.280;2022-09-06T07:04:04;22.30;99.90
54788;DHT22;59598;48.112;16.280;2022-09-06T07:06:55;22.70;99.90
54788;DHT22;59598;48.112;16.280;2022-09-06T07:09:27;22.90;99.90
54788;DHT22;59598;48.112;16.280;2022-09-06T07:11:58;22.90;99.90
54788;DHT22;59598;48.112;16.280;2022-09-06T07:14:30;23.00;99.90
54788;DHT22;59598;48.112;16.280;2022-09-06T07:17:04;22.90;99.90
54788;DHT22;59598;48.112;16.280;2022-09-06T07:19:35;23.10;99.90
54788;DHT22;59598;48.112;16.280;2022-09-06T07:22:07;23.40;99.90
54788;DHT22;59598;48.112;16.280;2022-09-06T07:24:38;23.60;99.90
54788;DHT22;59598;48.112;16.280;2022-09-06T07:27:12;23.80;99.90
54788;DHT22;59598;48.112;16.280;2022-09-06T07:29:46;23.90;99.90
54788;DHT22;59598;48.112;16.280;2022-09-06T07:32:19;23.90;99.90
54788;DHT22;59598;48.112;16.280;2022-09-06T07:34:50;24.20;99.90
54788;DHT22;59598;48.112;16.280;2022-09-06T07:37:22;24.10;99.90
54788;DHT22;59598;48.112;16.280;2022-09-06T07:39:53;24.40;99.90
54788;DHT22;59598;48.112;16.280;2022-09-06T07:42:27;24.50;99.90
54788;DHT22;59598;48.112;16.280;2022-09-06T07:45:01;24.90;99.90
54788;DHT22;59598;48.112;16.280;2022-09-06T07:47:33;24.90;99.90
54788;DHT22;59598;48.112;16.280;2022-09-06T07:50:05;24.90;99.90
54788;DHT22;59598;48.112;16.280;2022-09-06T07:52:37;24.80;99.90
54788;DHT22;59598;48.112;16.280;2022-09-06T07:55:08;25.10;99.90
54788;DHT22;59598;48.112;16.280;2022-09-06T07:57:40;25.10;99.90
54788;DHT22;59598;48.112;16.280;2022-09-06T08:00:12;25.10;99.90
54788;DHT22;59598;48.112;16.280;2022-09-06T08:02:44;25.40;99.90
54788;DHT22;59598;48.112;16.280;2022-09-06T08:05:17;24.70;99.90
54788;DHT22;59598;48.112;16.280;2022-09-06T08:07:49;24.80;99.90
54788;DHT22;59598;48.112;16.280;2022-09-06T08:10:21;25.50;99.90
54788;DHT22;59598;48.112;16.280;2022-09-06T08:12:55;25.70;99.90
54788;DHT22;59598;48.112;16.280;2022-09-06T08:15:27;26.10;99.90
54788;DHT22;59598;48.112;16.280;2022-09-06T08:18:04;26.00;99.90
54788;DHT22;59598;48.112;16.280;2022-09-06T08:20:38;26.40;99.90
54788;DHT22;59598;48.112;16.280;2022-09-06T08:23:11;26.50;99.90
54788;DHT22;59598;48.112;16.280;2022-09-06T08:25:57;26.20;99.90
54788;DHT22;59598;48.112;16.280;2022-09-06T08:28:31;26.30;99.90
54788;DHT22;59598;48.112;16.280;2022-09-06T08:31:08;26.30;99.90
54788;DHT22;59598;48.112;16.280;2022-09-06T08:33:43;25.60;99.90
54788;DHT22;59598;48.112;16.280;2022-09-06T08:36:15;25.10;99.90
54788;DHT22;59598;48.112;16.280;2022-09-06T08:38:49;25.60;99.90
54788;DHT22;59598;48.112;16.280;2022-09-06T08:44:36;25.50;99.90
54788;DHT22;59598;48.112;16.280;2022-09-06T08:47:10;26.10;99.90
54788;DHT22;59598;48.112;16.280;2022-09-06T08:50:00;27.10;99.90
54788;DHT22;59598;48.112;16.280;2022-09-06T08:53:01;26.80;99.90
54788;DHT22;59598;48.112;16.280;2022-09-06T08:55:51;26.80;99.90
54788;DHT22;59598;48.112;16.280;2022-09-06T09:04:49;27.20;99.90
54788;DHT22;59598;48.112;16.280;2022-09-06T09:07:53;27.70;99.90
54788;DHT22;59598;48.112;16.280;2022-09-06T09:10:47;28.10;99.90
54788;DHT22;59598;48.112;16.280;2022-09-06T09:16:18;28.10;99.90
54788;DHT22;59598;48.112;16.280;2022-09-06T09:18:55;27.90;99.90
54788;DHT22;59598;48.112;16.280;2022-09-06T09:21:35;28.80;99.90
54788;DHT22;59598;48.112;16.280;2022-09-06T09:24:16;28.80;99.90
54788;DHT22;59598;48.112;16.280;2022-09-06T09:27:06;29.10;99.90
54788;DHT22;59598;48.112;16.280;2022-09-06T09:30:03;29.50;99.90
54788;DHT22;59598;48.112;16.280;2022-09-06T09:32:43;29.20;99.90
54788;DHT22;59598;48.112;16.280;2022-09-06T09:35:28;29.30;99.90
54788;DHT22;59598;48.112;16.280;2022-09-06T09:38:09;29.20;99.90
54788;DHT22;59598;48.112;16.280;2022-09-06T09:41:03;29.40;99.90
54788;DHT22;59598;48.112;16.280;2022-09-06T09:43:40;29.30;99.90
54788;DHT22;59598;48.112;16.280;2022-09-06T09:49:35;29.40;99.90
54788;DHT22;59598;48.112;16.280;2022-09-06T09:52:09;28.80;99.90
54788;DHT22;59598;48.112;16.280;2022-09-06T09:54:44;29.40;99.90
54788;DHT22;59598;48.112;16.280;2022-09-06T09:57:30;29.60;99.90
54788;DHT22;59598;48.112;16.280;2022-09-06T10:00:34;29.60;99.90
54788;DHT22;59598;48.112;16.280;2022-09-06T10:03:19;30.30;99.90
54788;DHT22;59598;48.112;16.280;2022-09-06T10:05:59;30.20;99.90
54788;DHT22;59598;48.112;16.280;2022-09-06T10:08:38;29.60;99.90
54788;DHT22;59598;48.112;16.280;2022-09-06T10:11:12;30.60;99.90
54788;DHT22;59598;48.112;16.280;2022-09-06T10:13:50;31.10;99.90
54788;DHT22;59598;48.112;16.280;2022-09-06T10:16:43;31.50;99.90
54788;DHT22;59598;48.112;16.280;2022-09-06T10:19:28;31.80;99.90
54788;DHT22;59598;48.112;16.280;2022-09-06T10:22:29;32.40;99.90
54788;DHT22;59598;48.112;16.280;2022-09-06T10:30:28;32.70;99.90
54788;DHT22;59598;48.112;16.280;2022-09-06T10:35:51;33.40;99.90
54788;DHT22;59598;48.112;16.280;2022-09-06T10:38:52;34.40;99.90
54788;DHT22;59598;48.112;16.280;2022-09-06T10:41:49;35.60;99.90
54788;DHT22;59598;48.112;16.280;2022-09-06T10:53:31;35.80;99.90
54788;DHT22;59598;48.112;16.280;2022-09-06T10:59:37;35.50;99.90
54788;DHT22;59598;48.112;16.280;2022-09-06T11:02:29;35.30;99.90
54788;DHT22;59598;48.112;16.280;2022-09-06T11:05:31;35.90;99.90
54788;DHT22;59598;48.112;16.280;2022-09-06T11:08:31;37.00;99.90
54788;DHT22;59598;48.112;16.280;2022-09-06T11:11:12;37.10;99.90
54788;DHT22;59598;48.112;16.280;2022-09-06T11:14:11;37.60;99.90
54788;DHT22;59598;48.112;16.280;2022-09-06T11:17:09;37.80;99.90
54788;DHT22;59598;48.112;16.280;2022-09-06T11:19:50;38.10;99.90
54788;DHT22;59598;48.112;16.280;2022-09-06T11:22:55;36.50;99.90
54788;DHT22;59598;48.112;16.280;2022-09-06T11:28:45;37.40;99.90
54788;DHT22;59598;48.112;16.280;2022-09-06T11:31:32;38.10;99.90
54788;DHT22;59598;48.112;16.280;2022-09-06T11:34:10;38.10;99.90
54788;DHT22;59598;48.112;16.280;2022-09-06T11:37:05;37.70;99.90
54788;DHT22;59598;48.112;16.280;2022-09-06T11:39:41;36.10;99.90
54788;DHT22;59598;48.112;16.280;2022-09-06T11:53:58;36.70;99.90
54788;DHT22;59598;48.112;16.280;2022-09-06T11:56:38;37.30;99.90
54788;DHT22;59598;48.112;16.280;2022-09-06T12:02:03;36.00;99.90
54788;DHT22;59598;48.112;16.280;2022-09-06T12:08:10;36.50;99.90
54788;DHT22;59598;48.112;16.280;2022-09-06T12:10:58;36.90;99.90
54788;DHT22;59598;48.112;16.280;2022-09-06T12:16:19;38.10;99.90
54788;DHT22;59598;48.112;16.280;2022-09-06T12:18:53;37.60;99.90
54788;DHT22;59598;48.112;16.280;2022-09-06T12:21:45;37.30;99.90
54788;DHT22;59598;48.112;16.280;2022-09-06T12:30:09;36.10;99.90
54788;DHT22;59598;48.112;16.280;2022-09-06T12:32:48;37.60;99.90
54788;DHT22;59598;48.112;16.280;2022-09-06T12:35:27;37.30;99.90
54788;DHT22;59598;48.112;16.280;2022-09-06T12:38:06;36.70;99.90
54788;DHT22;59598;48.112;16.280;2022-09-06T12:40:47;36.40;99.90
54788;DHT22;59598;48.112;16.280;2022-09-06T12:43:31;35.60;99.90
54788;DHT22;59598;48.112;16.280;2022-09-06T12:46:08;34.80;99.90
54788;DHT22;59598;48.112;16.280;2022-09-06T12:48:40;33.20;99.90
54788;DHT22;59598;48.112;16.280;2022-09-06T12:51:19;33.50;99.90
54788;DHT22;59598;48.112;16.280;2022-09-06T12:53:52;34.70;99.90
54788;DHT22;59598;48.112;16.280;2022-09-06T12:56:32;35.30;99.90
54788;DHT22;59598;48.112;16.280;2022-09-06T12:59:19;34.00;99.90
54788;DHT22;59598;48.112;16.280;2022-09-06T13:02:05;32.40;99.90
54788;DHT22;59598;48.112;16.280;2022-09-06T13:04:48;32.60;99.90
54788;DHT22;59598;48.112;16.280;2022-09-06T13:07:24;33.40;99.90
54788;DHT22;59598;48.112;16.280;2022-09-06T13:09:57;34.60;99.90
54788;DHT22;59598;48.112;16.280;2022-09-06T13:12:34;34.40;99.90
54788;DHT22;59598;48.112;16.280;2022-09-06T13:18:22;33.50;99.90
54788;DHT22;59598;48.112;16.280;2022-09-06T13:21:08;33.30;99.90
54788;DHT22;59598;48.112;16.280;2022-09-06T13:23:48;31.90;99.90
54788;DHT22;59598;48.112;16.280;2022-09-06T13:26:37;30.70;99.90
54788;DHT22;59598;48.112;16.280;2022-09-06T13:31:50;31.20;99.90
54788;DHT22;59598;48.112;16.280;2022-09-06T13:34:31;31.50;99.90
54788;DHT22;59598;48.112;16.280;2022-09-06T13:37:08;33.60;99.90
54788;DHT22;59598;48.112;16.280;2022-09-06T13:39:45;34.50;99.90
54788;DHT22;59598;48.112;16.280;2022-09-06T13:42:35;34.80;99.90
54788;DHT22;59598;48.112;16.280;2022-09-06T13:45:28;35.20;99.90
54788;DHT22;59598;48.112;16.280;2022-09-06T13:48:08;36.70;99.90
54788;DHT22;59598;48.112;16.280;2022-09-06T13:50:41;36.70;99.90
54788;DHT22;59598;48.112;16.280;2022-09-06T13:53:20;34.70;99.90
54788;DHT22;59598;48.112;16.280;2022-09-06T13:55:54;35.10;99.90
54788;DHT22;59598;48.112;16.280;2022-09-06T13:58:26;33.60;99.90
54788;DHT22;59598;48.112;16.280;2022-09-06T14:00:58;34.00;99.90
54788;DHT22;59598;48.112;16.280;2022-09-06T14:03:33;35.20;99.90
54788;DHT22;59598;48.112;16.280;2022-09-06T14:06:05;35.20;99.90
54788;DHT22;59598;48.112;16.280;2022-09-06T14:08:40;34.80;99.90
54788;DHT22;59598;48.112;16.280;2022-09-06T14:11:15;36.70;99.90
54788;DHT22;59598;48.112;16.280;2022-09-06T14:13:52;36.40;99.90
54788;DHT22;59598;48.112;16.280;2022-09-06T14:16:27;33.50;99.90
54788;DHT22;59598;48.112;16.280;2022-09-06T14:19:00;33.20;99.90
54788;DHT22;59598;48.112;16.280;2022-09-06T14:21:37;33.60;99.90
54788;DHT22;59598;48.112;16.280;2022-09-06T14:24:09;33.80;99.90
54788;DHT22;59598;48.112;16.280;2022-09-06T14:26:44;33.30;99.90
54788;DHT22;59598;48.112;16.280;2022-09-06T14:29:17;33.10;99.90
54788;DHT22;59598;48.112;16.280;2022-09-06T14:31:49;32.00;99.90
54788;DHT22;59598;48.112;16.280;2022-09-06T14:34:22;31.60;99.90
54788;DHT22;59598;48.112;16.280;2022-09-06T14:36:55;32.00;99.90
54788;DHT22;59598;48.112;16.280;2022-09-06T14:39:32;30.70;99.90
54788;DHT22;59598;48.112;16.280;2022-09-06T14:42:04;30.50;99.90
54788;DHT22;59598;48.112;16.280;2022-09-06T14:44:38;31.00;99.90
54788;DHT22;59598;48.112;16.280;2022-09-06T14:47:14;30.90;99.90
54788;DHT22;59598;48.112;16.280;2022-09-06T14:49:46;30.20;99.90
54788;DHT22;59598;48.112;16.280;2022-09-06T14:52:20;29.70;99.90
54788;DHT22;59598;48.112;16.280;2022-09-06T14:54:52;29.50;99.90
54788;DHT22;59598;48.112;16.280;2022-09-06T14:57:23;29.90;99.90
54788;DHT22;59598;48.112;16.280;2022-09-06T14:59:55;30.20;99.90
54788;DHT22;59598;48.112;16.280;2022-09-06T15:02:34;30.10;99.90
54788;DHT22;59598;48.112;16.280;2022-09-06T15:05:06;31.30;99.90
54788;DHT22;59598;48.112;16.280;2022-09-06T15:07:43;30.30;99.90
54788;DHT22;59598;48.112;16.280;2022-09-06T15:10:15;29.90;99.90
54788;DHT22;59598;48.112;16.280;2022-09-06T15:12:51;30.00;99.90
54788;DHT22;59598;48.112;16.280;2022-09-06T15:15:24;30.00;99.90
54788;DHT22;59598;48.112;16.280;2022-09-06T15:17:58;29.70;99.90
54788;DHT22;59598;48.112;16.280;2022-09-06T15:20:29;30.00;99.90
54788;DHT22;59598;48.112;16.280;2022-09-06T15:23:00;30.20;99.90
54788;DHT22;59598;48.112;16.280;2022-09-06T15:25:36;31.20;99.90
54788;DHT22;59598;48.112;16.280;2022-09-06T15:28:08;32.70;99.90
54788;DHT22;59598;48.112;16.280;2022-09-06T15:30:39;33.20;99.90
54788;DHT22;59598;48.112;16.280;2022-09-06T15:33:16;32.90;99.90
54788;DHT22;59598;48.112;16.280;2022-09-06T15:35:53;31.80;99.90
54788;DHT22;59598;48.112;16.280;2022-09-06T15:38:25;31.30;99.90
54788;DHT22;59598;48.112;16.280;2022-09-06T15:41:10;30.70;99.90
54788;DHT22;59598;48.112;16.280;2022-09-06T15:43:45;30.60;99.90
54788;DHT22;59598;48.112;16.280;2022-09-06T15:46:38;30.60;99.90
54788;DHT22;59598;48.112;16.280;2022-09-06T15:49:22;29.90;99.90
54788;DHT22;59598;48.112;16.280;2022-09-06T15:52:00;29.30;99.90
54788;DHT22;59598;48.112;16.280;2022-09-06T15:54:38;28.50;99.90
54788;DHT22;59598;48.112;16.280;2022-09-06T15:57:28;27.90;99.90
54788;DHT22;59598;48.112;16.280;2022-09-06T16:00:00;27.30;99.90
54788;DHT22;59598;48.112;16.280;2022-09-06T16:02:32;27.30;99.90
54788;DHT22;59598;48.112;16.280;2022-09-06T16:05:04;27.00;99.90
54788;DHT22;59598;48.112;16.280;2022-09-06T16:07:38;26.80;99.90
54788;DHT22;59598;48.112;16.280;2022-09-06T16:10:15;26.60;99.90
54788;DHT22;59598;48.112;16.280;2022-09-06T16:12:50;26.50;99.90
54788;DHT22;59598;48.112;16.280;2022-09-06T16:15:25;26.50;99.90
54788;DHT22;59598;48.112;16.280;2022-09-06T16:17:57;26.40;99.90
54788;DHT22;59598;48.112;16.280;2022-09-06T16:20:37;26.20;99.90
54788;DHT22;59598;48.112;16.280;2022-09-06T16:23:08;26.20;99.90
54788;DHT22;59598;48.112;16.280;2022-09-06T16:25:45;26.20;99.90
54788;DHT22;59598;48.112;16.280;2022-09-06T16:28:18;26.20;99.90
54788;DHT22;59598;48.112;16.280;2022-09-06T16:30:50;26.10;99.90
54788;DHT22;59598;48.112;16.280;2022-09-06T16:33:21;26.10;99.90
54788;DHT22;59598;48.112;16.280;2022-09-06T16:36:01;25.90;99.90
54788;DHT22;59598;48.112;16.280;2022-09-06T16:38:37;25.90;99.90
54788;DHT22;59598;48.112;16.280;2022-09-06T16:41:21;25.80;99.90
54788;DHT22;59598;48.112;16.280;2022-09-06T16:43:55;25.80;99.90
54788;DHT22;59598;48.112;16.280;2022-09-06T16:46:31;25.70;99.90
54788;DHT22;59598;48.112;16.280;2022-09-06T16:49:08;25.60;99.90
54788;DHT22;59598;48.112;16.280;2022-09-06T16:51:40;25.30;99.90
54788;DHT22;59598;48.112;16.280;2022-09-06T16:54:18;24.80;99.90
54788;DHT22;59598;48.112;16.280;2022-09-06T16:56:55;24.50;99.90
54788;DHT22;59598;48.112;16.280;2022-09-06T16:59:35;24.40;99.90
54788;DHT22;59598;48.112;16.280;2022-09-06T17:02:10;24.20;99.90
54788;DHT22;59598;48.112;16.280;2022-09-06T17:04:42;24.10;99.90
54788;DHT22;59598;48.112;16.280;2022-09-06T17:07:16;24.00;99.90
54788;DHT22;59598;48.112;16.280;2022-09-06T17:09:51;23.80;99.90
54788;DHT22;59598;48.112;16.280;2022-09-06T17:12:31;23.60;99.90
54788;DHT22;59598;48.112;16.280;2022-09-06T17:15:02;23.50;99.90
54788;DHT22;59598;48.112;16.280;2022-09-06T17:17:36;23.40;99.90
54788;DHT22;59598;48.112;16.280;2022-09-06T17:20:10;23.30;99.90
54788;DHT22;59598;48.112;16.280;2022-09-06T17:22:49;23.30;99.90
54788;DHT22;59598;48.112;16.280;2022-09-06T17:25:20;23.10;99.90
54788;DHT22;59598;48.112;16.280;2022-09-06T17:27:54;23.00;99.90
54788;DHT22;59598;48.112;16.280;2022-09-06T17:30:26;22.80;99.90
54788;DHT22;59598;48.112;16.280;2022-09-06T17:33:06;22.70;99.90
54788;DHT22;59598;48.112;16.280;2022-09-06T17:35:46;22.60;99.90
54788;DHT22;59598;48.112;16.280;2022-09-06T17:38:19;22.50;99.90
54788;DHT22;59598;48.112;16.280;2022-09-06T17:40:57;22.40;99.90
54788;DHT22;59598;48.112;16.280;2022-09-06T17:43:37;22.30;99.90
54788;DHT22;59598;48.112;16.280;2022-09-06T17:46:11;22.20;99.90
54788;DHT22;59598;48.112;16.280;2022-09-06T17:48:45;22.10;99.90
54788;DHT22;59598;48.112;16.280;2022-09-06T17:51:19;22.00;99.90
54788;DHT22;59598;48.112;16.280;2022-09-06T17:53:56;21.90;99.90
54788;DHT22;59598;48.112;16.280;2022-09-06T17:56:33;21.80;99.90
54788;DHT22;59598;48.112;16.280;2022-09-06T17:59:12;21.70;99.90
54788;DHT22;59598;48.112;16.280;2022-09-06T18:01:45;21.70;99.90
54788;DHT22;59598;48.112;16.280;2022-09-06T18:04:17;21.60;99.90
54788;DHT22;59598;48.112;16.280;2022-09-06T18:06:49;21.60;99.90